createdAt,value
2018-10-01T00:01:52.601Z,11.58
2018-10-01T00:04:21.578Z,11.63
2018-10-01T00:06:50.478Z,11.54
2018-10-01T00:09:19.688Z,11.53
2018-10-01T00:11:49.237Z,11.78
2018-10-01T00:14:18.323Z,11.67
2018-10-01T00:16:47.310Z,11.54
2018-10-01T00:19:22.046Z,11.60
2018-10-01T00:21:56.385Z,11.53
2018-10-01T00:24:25.654Z,11.52
2018-10-01T00:26:54.882Z,11.51
2018-10-01T00:29:23.850Z,11.45
2018-10-01T00:31:52.825Z,11.51
2018-10-01T00:34:21.799Z,11.41
2018-10-01T00:36:51.232Z,11.39
2018-10-01T00:39:20.287Z,11.30
2018-10-01T00:41:49.351Z,11.35
2018-10-01T00:44:18.478Z,11.19
2018-10-01T00:46:47.437Z,11.51
2018-10-01T00:49:16.410Z,11.44
2018-10-01T00:51:45.322Z,11.41
2018-10-01T00:54:14.281Z,11.39
2018-10-01T00:56:43.233Z,11.41
2018-10-01T00:59:12.196Z,11.54
2018-10-01T01:01:41.172Z,11.51
2018-10-01T01:06:45.293Z,11.58
2018-10-01T01:09:14.303Z,11.45
2018-10-01T01:11:43.340Z,11.47
2018-10-01T01:14:12.273Z,11.59
2018-10-01T01:16:41.223Z,11.81
2018-10-01T01:19:10.152Z,11.69
2018-10-01T01:21:39.170Z,11.65
2018-10-01T01:24:08.326Z,11.66
2018-10-01T01:26:37.386Z,11.58
2018-10-01T01:29:06.342Z,11.62
2018-10-01T01:31:35.294Z,11.59
2018-10-01T01:34:04.327Z,11.57
2018-10-01T01:36:33.304Z,11.64
2018-10-01T01:39:02.291Z,11.50
2018-10-01T01:41:31.281Z,11.57
2018-10-01T01:44:00.238Z,11.72
2018-10-01T01:46:29.304Z,11.55
2018-10-01T01:48:58.381Z,11.59
2018-10-01T01:51:27.503Z,11.60
2018-10-01T01:53:56.524Z,11.64
2018-10-01T01:56:25.523Z,11.62
2018-10-01T01:58:54.555Z,11.61
2018-10-01T02:01:24.049Z,11.64
2018-10-01T02:03:52.988Z,11.68
2018-10-01T02:06:21.961Z,11.69
2018-10-01T02:08:50.940Z,11.55
2018-10-01T02:11:19.840Z,11.56
2018-10-01T02:13:48.775Z,11.62
2018-10-01T02:16:17.841Z,11.71
2018-10-01T02:18:46.923Z,11.67
2018-10-01T02:21:15.854Z,11.75
2018-10-01T02:23:44.843Z,11.74
2018-10-01T02:26:13.843Z,11.76
2018-10-01T02:28:42.930Z,11.76
2018-10-01T02:31:12.279Z,11.77
2018-10-01T02:33:41.324Z,11.87
2018-10-01T02:36:10.320Z,11.69
2018-10-01T02:38:39.316Z,11.65
2018-10-01T02:41:08.454Z,11.80
2018-10-01T02:43:37.727Z,11.91
2018-10-01T02:46:06.652Z,11.85
2018-10-01T02:48:35.583Z,11.63
2018-10-01T02:51:04.565Z,11.69
2018-10-01T02:53:38.919Z,11.71
2018-10-01T02:56:08.130Z,11.75
2018-10-01T02:58:37.054Z,11.83
2018-10-01T03:01:06.074Z,11.66
2018-10-01T03:03:35.073Z,11.85
2018-10-01T03:06:04.088Z,11.87
2018-10-01T03:08:33.107Z,11.76
2018-10-01T03:11:02.022Z,11.71
2018-10-01T03:13:30.966Z,11.69
2018-10-01T03:15:59.917Z,11.80
2018-10-01T03:18:28.858Z,11.87
2018-10-01T03:20:57.795Z,11.87
2018-10-01T03:23:26.781Z,11.86
2018-10-01T03:25:55.837Z,11.91
2018-10-01T03:28:24.913Z,11.79
2018-10-01T03:30:53.854Z,11.87
2018-10-01T03:33:22.808Z,11.86
2018-10-01T03:35:51.746Z,11.98
2018-10-01T03:38:20.711Z,11.88
2018-10-01T03:40:49.650Z,12.04
2018-10-01T03:43:18.608Z,11.92
2018-10-01T03:45:47.574Z,12.01
2018-10-01T03:48:16.531Z,11.97
2018-10-01T03:50:45.535Z,11.90
2018-10-01T03:53:14.512Z,12.02
2018-10-01T03:55:43.434Z,11.86
2018-10-01T03:58:12.413Z,11.94
2018-10-01T04:00:41.480Z,11.85
2018-10-01T04:03:10.488Z,11.83
2018-10-01T04:05:39.353Z,11.77
2018-10-01T04:08:08.433Z,11.86
2018-10-01T04:10:37.385Z,11.68
2018-10-01T04:13:06.307Z,11.72
2018-10-01T04:15:35.290Z,11.73
2018-10-01T04:18:04.186Z,11.74
2018-10-01T04:20:33.168Z,11.73
2018-10-01T04:23:02.167Z,11.69
2018-10-01T04:25:31.080Z,11.57
2018-10-01T04:28:00.034Z,11.68
2018-10-01T04:30:29.015Z,11.65
2018-10-01T04:32:57.955Z,11.63
2018-10-01T04:35:26.904Z,11.56
2018-10-01T04:37:55.841Z,11.63
2018-10-01T04:40:24.765Z,11.76
2018-10-01T04:42:53.737Z,11.76
2018-10-01T04:45:22.827Z,11.88
2018-10-01T04:47:51.750Z,11.86
2018-10-01T04:50:20.693Z,11.94
2018-10-01T04:52:49.687Z,11.90
2018-10-01T04:55:18.600Z,11.87
2018-10-01T04:57:47.604Z,11.86
2018-10-01T05:00:16.518Z,11.91
2018-10-01T05:02:45.491Z,11.92
2018-10-01T05:05:14.460Z,11.80
2018-10-01T05:07:43.425Z,11.89
2018-10-01T05:10:12.322Z,11.99
2018-10-01T05:12:41.304Z,12.03
2018-10-01T05:15:10.236Z,12.05
2018-10-01T05:17:39.170Z,11.89
2018-10-01T05:20:08.170Z,11.74
2018-10-01T05:22:37.238Z,11.98
2018-10-01T05:25:06.176Z,11.93
2018-10-01T05:27:35.103Z,11.98
2018-10-01T05:30:04.107Z,11.91
2018-10-01T05:32:33.051Z,11.83
2018-10-01T05:35:02.041Z,11.84
2018-10-01T05:37:30.970Z,11.76
2018-10-01T05:39:59.974Z,11.53
2018-10-01T05:42:28.898Z,11.51
2018-10-01T05:44:57.845Z,11.43
2018-10-01T05:47:26.780Z,11.63
2018-10-01T05:49:55.715Z,11.52
2018-10-01T05:52:24.715Z,11.72
2018-10-01T05:54:53.612Z,11.85
2018-10-01T05:57:22.579Z,11.76
2018-10-01T05:59:51.531Z,11.92
2018-10-01T06:02:20.681Z,11.76
2018-10-01T06:04:49.674Z,11.80
2018-10-01T06:07:18.568Z,11.87
2018-10-01T06:09:47.502Z,11.78
2018-10-01T06:12:16.429Z,11.88
2018-10-01T06:14:45.361Z,11.86
2018-10-01T06:17:14.323Z,11.92
2018-10-01T06:19:43.245Z,11.88
2018-10-01T06:22:12.192Z,11.74
2018-10-01T06:24:41.115Z,11.81
2018-10-01T06:27:10.046Z,11.83
2018-10-01T06:29:38.998Z,11.92
2018-10-01T06:32:07.971Z,12.03
2018-10-01T06:34:37.041Z,11.74
2018-10-01T06:37:05.941Z,11.76
2018-10-01T06:39:34.872Z,11.99
2018-10-01T06:42:03.951Z,11.99
2018-10-01T06:44:32.838Z,11.86
2018-10-01T06:47:01.754Z,11.90
2018-10-01T06:49:30.830Z,11.77
2018-10-01T06:51:59.745Z,11.88
2018-10-01T06:54:28.676Z,11.83
2018-10-01T06:56:57.642Z,11.83
2018-10-01T06:59:26.613Z,11.96
2018-10-01T07:01:55.692Z,11.95
2018-10-01T07:04:24.620Z,11.91
2018-10-01T07:06:53.561Z,12.03
2018-10-01T07:09:22.481Z,11.88
2018-10-01T07:11:51.421Z,12.00
2018-10-01T07:14:21.211Z,11.93
2018-10-01T07:16:50.194Z,11.98
2018-10-01T07:19:19.105Z,12.08
2018-10-01T07:21:48.083Z,11.88
2018-10-01T07:24:17.002Z,12.05
2018-10-01T07:26:45.942Z,11.95
2018-10-01T07:29:14.882Z,11.88
2018-10-01T07:31:43.843Z,12.01
2018-10-01T07:34:12.778Z,12.10
2018-10-01T07:36:41.867Z,12.15
2018-10-01T07:39:10.787Z,12.19
2018-10-01T07:41:48.247Z,12.06
2018-10-01T07:44:17.202Z,12.04
2018-10-01T07:46:46.114Z,12.05
2018-10-01T07:49:15.103Z,12.15
2018-10-01T07:51:44.075Z,12.18
2018-10-01T07:54:12.983Z,12.28
2018-10-01T07:56:41.914Z,12.33
2018-10-01T07:59:14.896Z,12.12
2018-10-01T08:01:43.898Z,12.07
2018-10-01T08:04:12.820Z,12.22
2018-10-01T08:06:41.731Z,12.28
2018-10-01T08:09:11.418Z,12.06
2018-10-01T08:11:40.405Z,12.21
2018-10-01T08:14:09.445Z,12.26
2018-10-01T08:16:38.385Z,12.15
2018-10-01T08:19:07.329Z,12.27
2018-10-01T08:21:36.262Z,12.10
2018-10-01T08:24:05.234Z,12.28
2018-10-01T08:26:34.235Z,12.45
2018-10-01T08:29:03.103Z,12.42
2018-10-01T08:31:32.526Z,12.38
2018-10-01T08:34:01.493Z,12.27
2018-10-01T08:36:30.456Z,12.25
2018-10-01T08:38:59.437Z,12.27
2018-10-01T08:41:28.402Z,12.23
2018-10-01T08:43:57.378Z,12.44
2018-10-01T08:46:26.412Z,12.34
2018-10-01T08:48:59.734Z,12.31
2018-10-01T08:52:08.007Z,12.45
2018-10-01T08:54:41.509Z,12.39
2018-10-01T08:57:10.460Z,12.36
2018-10-01T08:59:39.419Z,12.52
2018-10-01T09:02:08.398Z,12.45
2018-10-01T09:04:37.325Z,12.46
2018-10-01T09:07:06.257Z,12.41
2018-10-01T09:09:35.263Z,12.51
2018-10-01T09:12:04.196Z,12.59
2018-10-01T09:14:33.223Z,12.70
2018-10-01T09:17:02.151Z,12.85
2018-10-01T09:19:31.238Z,12.89
2018-10-01T09:22:00.152Z,12.85
2018-10-01T09:24:29.074Z,12.92
2018-10-01T09:26:58.030Z,13.04
2018-10-01T09:29:27.021Z,13.10
2018-10-01T09:31:55.918Z,13.11
2018-10-01T09:34:25.238Z,13.03
2018-10-01T09:36:54.173Z,13.00
2018-10-01T09:39:23.169Z,12.96
2018-10-01T09:41:52.270Z,13.14
2018-10-01T09:44:21.211Z,13.05
2018-10-01T09:46:50.132Z,13.11
2018-10-01T09:49:19.653Z,13.23
2018-10-01T09:51:49.817Z,13.06
2018-10-01T09:54:18.791Z,13.34
2018-10-01T09:56:47.729Z,13.72
2018-10-01T09:59:16.702Z,13.48
2018-10-01T10:01:45.692Z,13.77
2018-10-01T10:04:14.573Z,13.87
2018-10-01T10:06:43.566Z,13.73
2018-10-01T10:09:12.485Z,13.47
2018-10-01T10:11:41.591Z,12.71
2018-10-01T10:14:10.598Z,12.26
2018-10-01T10:16:39.588Z,12.33
2018-10-01T10:19:08.457Z,12.66
2018-10-01T10:21:37.538Z,12.64
2018-10-01T10:24:06.561Z,12.75
2018-10-01T10:26:35.506Z,12.82
2018-10-01T10:29:04.475Z,12.89
2018-10-01T10:31:33.427Z,13.00
2018-10-01T10:34:02.424Z,12.94
2018-10-01T10:36:31.327Z,12.94
2018-10-01T10:39:00.308Z,12.95
2018-10-01T10:41:29.192Z,12.76
2018-10-01T10:43:58.099Z,12.92
2018-10-01T10:46:27.178Z,12.95
2018-10-01T10:48:56.270Z,13.12
2018-10-01T10:51:25.260Z,13.00
2018-10-01T10:53:54.424Z,13.04
2018-10-01T10:56:23.351Z,13.15
2018-10-01T10:58:52.290Z,12.99
2018-10-01T11:01:21.227Z,13.02
2018-10-01T11:03:50.206Z,12.98
2018-10-01T11:06:19.117Z,12.95
2018-10-01T11:08:48.165Z,12.92
2018-10-01T11:11:17.247Z,12.96
2018-10-01T11:13:46.218Z,13.06
2018-10-01T11:16:15.107Z,13.20
2018-10-01T11:18:44.269Z,13.20
2018-10-01T11:21:13.057Z,13.27
2018-10-01T11:23:41.974Z,13.23
2018-10-01T11:26:11.031Z,13.15
2018-10-01T11:28:39.999Z,13.27
2018-10-01T11:31:08.940Z,13.06
2018-10-01T11:33:37.974Z,13.14
2018-10-01T11:36:06.815Z,12.87
2018-10-01T11:38:35.736Z,13.14
2018-10-01T11:41:04.765Z,13.02
2018-10-01T11:43:33.807Z,13.04
2018-10-01T11:46:02.700Z,12.72
2018-10-01T11:48:31.650Z,12.35
2018-10-01T11:51:00.647Z,12.33
2018-10-01T11:53:29.514Z,12.15
2018-10-01T11:55:58.436Z,11.98
2018-10-01T11:58:27.397Z,12.09
2018-10-01T12:00:56.324Z,11.92
2018-10-01T12:03:25.359Z,11.66
2018-10-01T12:05:54.171Z,11.61
2018-10-01T12:08:23.141Z,11.87
2018-10-01T12:10:52.071Z,11.88
2018-10-01T12:13:21.010Z,12.03
2018-10-01T12:15:50.115Z,11.86
2018-10-01T12:18:18.959Z,11.85
2018-10-01T12:20:47.934Z,11.50
2018-10-01T12:23:16.898Z,11.77
2018-10-01T12:25:45.830Z,11.75
2018-10-01T12:28:14.812Z,11.87
2018-10-01T12:30:43.957Z,11.99
2018-10-01T12:33:12.920Z,12.13
2018-10-01T12:35:41.837Z,12.12
2018-10-01T12:38:10.756Z,12.19
2018-10-01T12:40:39.781Z,12.38
2018-10-01T12:43:08.734Z,12.46
2018-10-01T12:45:37.752Z,12.65
2018-10-01T12:48:06.707Z,12.43
2018-10-01T12:50:35.869Z,12.30
2018-10-01T12:53:04.586Z,12.18
2018-10-01T12:55:33.557Z,12.28
2018-10-01T12:58:02.502Z,12.59
2018-10-01T13:00:31.453Z,12.61
2018-10-01T13:03:00.545Z,12.44
2018-10-01T13:05:29.453Z,12.56
2018-10-01T13:08:02.322Z,12.49
2018-10-01T13:10:31.287Z,12.55
2018-10-01T13:13:00.282Z,12.75
2018-10-01T13:15:29.198Z,12.68
2018-10-01T13:17:58.184Z,12.65
2018-10-01T13:20:27.061Z,12.47
2018-10-01T13:22:56.131Z,12.78
2018-10-01T13:25:25.073Z,12.40
2018-10-01T13:27:53.998Z,12.78
2018-10-01T13:30:23.738Z,12.49
2018-10-01T13:32:52.521Z,12.66
2018-10-01T13:35:21.493Z,12.68
2018-10-01T13:37:50.492Z,12.51
2018-10-01T13:40:19.395Z,12.64
2018-10-01T13:42:48.399Z,12.68
2018-10-01T13:45:17.293Z,12.75
2018-10-01T13:47:46.254Z,12.72
2018-10-01T13:50:15.227Z,12.64
2018-10-01T13:52:44.178Z,12.80
2018-10-01T13:55:13.092Z,12.66
2018-10-01T13:57:42.027Z,12.75
2018-10-01T14:00:10.941Z,12.80
2018-10-01T14:02:39.883Z,12.86
2018-10-01T14:05:08.847Z,12.88
2018-10-01T14:07:37.885Z,12.74
2018-10-01T14:10:06.714Z,12.76
2018-10-01T14:12:35.815Z,12.67
2018-10-01T14:15:04.987Z,12.87
2018-10-01T14:17:33.988Z,12.82
2018-10-01T14:20:03.383Z,12.73
2018-10-01T14:22:32.050Z,12.60
2018-10-01T14:25:01.089Z,12.69
2018-10-01T14:27:29.947Z,12.37
2018-10-01T14:29:58.934Z,12.49
2018-10-01T14:32:28.028Z,12.46
2018-10-01T14:34:57.035Z,12.72
2018-10-01T14:37:26.026Z,12.79
2018-10-01T14:39:55.062Z,12.66
2018-10-01T14:42:24.044Z,12.89
2018-10-01T14:44:52.954Z,12.97
2018-10-01T14:47:21.918Z,13.11
2018-10-01T14:49:50.907Z,13.08
2018-10-01T14:52:19.875Z,13.01
2018-10-01T14:54:48.976Z,13.12
2018-10-01T14:57:18.338Z,12.86
2018-10-01T14:59:47.342Z,12.76
2018-10-01T15:02:16.382Z,12.70
2018-10-01T15:04:45.303Z,12.89
2018-10-01T15:07:14.225Z,12.76
2018-10-01T15:09:43.264Z,12.67
2018-10-01T15:12:12.330Z,12.75
2018-10-01T15:14:41.180Z,12.80
2018-10-01T15:17:10.172Z,12.80
2018-10-01T15:19:39.110Z,12.71
2018-10-01T15:22:08.030Z,12.53
2018-10-01T15:24:37.129Z,12.59
2018-10-01T15:27:06.061Z,12.66
2018-10-01T15:29:34.966Z,12.76
2018-10-01T15:32:03.936Z,12.54
2018-10-01T15:34:32.876Z,12.57
2018-10-01T15:37:01.966Z,12.36
2018-10-01T15:39:31.067Z,12.31
2018-10-01T15:42:00.025Z,12.29
2018-10-01T15:44:28.975Z,12.14
2018-10-01T15:46:57.987Z,12.14
2018-10-01T15:49:26.893Z,12.23
2018-10-01T15:51:55.885Z,12.22
2018-10-01T15:54:24.787Z,12.09
2018-10-01T15:56:53.733Z,12.09
2018-10-01T15:59:22.667Z,12.28
2018-10-01T16:01:51.636Z,12.18
2018-10-01T16:04:20.554Z,12.02
2018-10-01T16:06:49.497Z,12.19
2018-10-01T16:09:18.508Z,12.25
2018-10-01T16:11:47.577Z,12.23
2018-10-01T16:14:16.542Z,12.27
2018-10-01T16:16:45.996Z,12.30
2018-10-01T16:19:15.438Z,12.39
2018-10-01T16:21:46.259Z,12.22
2018-10-01T16:24:15.520Z,12.25
2018-10-01T16:26:44.538Z,12.19
2018-10-01T16:29:13.507Z,12.32
2018-10-01T16:31:42.407Z,11.96
2018-10-01T16:34:11.355Z,12.01
2018-10-01T16:36:40.312Z,11.93
2018-10-01T16:39:10.903Z,12.02
2018-10-01T16:41:39.863Z,12.01
2018-10-01T16:44:08.908Z,11.92
2018-10-01T16:46:37.858Z,12.03
2018-10-01T16:49:06.890Z,12.00
2018-10-01T16:51:35.820Z,11.91
2018-10-01T16:54:04.815Z,11.83
2018-10-01T16:56:33.772Z,11.56
2018-10-01T16:59:07.340Z,11.61
2018-10-01T17:01:41.661Z,11.77
2018-10-01T17:04:17.739Z,11.54
2018-10-01T17:06:53.825Z,11.64
2018-10-01T17:09:22.819Z,11.67
2018-10-01T17:11:51.806Z,11.70
2018-10-01T17:14:20.797Z,11.66
2018-10-01T17:16:49.717Z,11.64
2018-10-01T17:19:18.840Z,11.57
2018-10-01T17:21:47.861Z,11.55
2018-10-01T17:24:16.848Z,11.51
2018-10-01T17:26:45.797Z,11.35
2018-10-01T17:29:14.787Z,11.36
2018-10-01T17:31:43.764Z,11.42
2018-10-01T17:34:12.743Z,11.38
2018-10-01T17:36:41.717Z,11.39
2018-10-01T17:39:11.141Z,11.15
2018-10-01T17:41:40.856Z,11.11
2018-10-01T17:44:09.878Z,11.17
2018-10-01T17:46:38.839Z,11.09
2018-10-01T17:49:07.834Z,11.02
2018-10-01T17:51:36.808Z,11.10
2018-10-01T17:54:05.824Z,10.97
2018-10-01T17:56:34.762Z,11.04
2018-10-01T17:59:03.695Z,10.91
2018-10-01T18:01:32.664Z,10.99
2018-10-01T18:04:02.146Z,10.94
2018-10-01T18:06:31.125Z,10.93
2018-10-01T18:09:00.164Z,11.10
2018-10-01T18:11:29.348Z,10.87
2018-10-01T18:13:58.293Z,11.20
2018-10-01T18:16:27.281Z,11.03
2018-10-01T18:18:56.217Z,11.02
2018-10-01T18:21:25.131Z,11.16
2018-10-01T18:23:54.145Z,10.91
2018-10-01T18:26:23.105Z,11.11
2018-10-01T18:28:52.103Z,11.05
2018-10-01T18:31:21.062Z,10.98
2018-10-01T18:33:50.020Z,10.77
2018-10-01T18:36:19.096Z,11.02
2018-10-01T18:38:48.027Z,10.76
2018-10-01T18:41:16.979Z,10.83
2018-10-01T18:43:46.046Z,10.72
2018-10-01T18:46:14.920Z,10.79
2018-10-01T18:48:43.886Z,10.80
2018-10-01T18:51:12.821Z,10.40
2018-10-01T18:53:41.850Z,10.45
2018-10-01T18:56:10.814Z,10.41
2018-10-01T18:58:39.912Z,10.37
2018-10-01T19:01:08.938Z,10.49
2018-10-01T19:03:37.970Z,10.53
2018-10-01T19:06:07.033Z,10.31
2018-10-01T19:08:35.973Z,10.49
2018-10-01T19:11:04.964Z,10.45
2018-10-01T19:13:33.972Z,10.42
2018-10-01T19:16:02.971Z,10.34
2018-10-01T19:18:31.906Z,10.27
2018-10-01T19:21:00.925Z,10.37
2018-10-01T19:23:29.811Z,10.24
2018-10-01T19:25:58.836Z,10.31
2018-10-01T19:28:27.781Z,10.23
2018-10-01T19:30:56.751Z,10.12
2018-10-01T19:33:25.827Z,10.13
2018-10-01T19:35:54.745Z,10.02
2018-10-01T19:38:23.705Z,10.30
2018-10-01T19:40:52.669Z,10.15
2018-10-01T19:43:21.673Z,10.26
2018-10-01T19:45:50.727Z,10.31
2018-10-01T19:48:19.659Z,10.30
2018-10-01T19:50:48.675Z,10.18
2018-10-01T19:53:17.687Z,10.13
2018-10-01T19:55:46.632Z,10.17
2018-10-01T19:58:15.606Z,10.12
2018-10-01T20:00:44.591Z,10.02
2018-10-01T20:03:13.664Z,10.05
2018-10-01T20:05:42.621Z,9.97
2018-10-01T20:08:11.588Z,9.79
2018-10-01T20:10:40.577Z,9.87
2018-10-01T20:13:09.470Z,9.90
2018-10-01T20:15:38.457Z,9.77
2018-10-01T20:18:07.394Z,9.84
2018-10-01T20:20:36.330Z,9.65
2018-10-01T20:23:05.282Z,9.45
2018-10-01T20:25:34.308Z,9.48
2018-10-01T20:28:03.931Z,9.58
2018-10-01T20:30:32.808Z,9.64
2018-10-01T20:33:01.838Z,9.20
2018-10-01T20:35:30.967Z,9.37
2018-10-01T20:38:00.154Z,9.31
2018-10-01T20:40:29.028Z,9.31
2018-10-01T20:42:57.982Z,9.22
2018-10-01T20:45:26.927Z,9.30
2018-10-01T20:47:55.902Z,9.38
2018-10-01T20:50:24.938Z,9.32
2018-10-01T20:52:53.948Z,9.45
2018-10-01T20:55:22.777Z,9.39
2018-10-01T20:57:51.727Z,9.17
2018-10-01T21:00:20.675Z,9.34
2018-10-01T21:02:49.626Z,9.18
2018-10-01T21:05:18.581Z,8.99
2018-10-01T21:07:47.560Z,9.17
2018-10-01T21:10:16.509Z,9.17
2018-10-01T21:12:45.463Z,9.12
2018-10-01T21:15:14.419Z,9.12
2018-10-01T21:17:43.490Z,9.21
2018-10-01T21:20:12.460Z,9.36
2018-10-01T21:22:41.517Z,9.27
2018-10-01T21:25:10.452Z,9.21
2018-10-01T21:27:39.393Z,9.17
2018-10-01T21:30:08.349Z,9.19
2018-10-01T21:32:37.269Z,8.91
2018-10-01T21:35:06.199Z,9.04
2018-10-01T21:37:35.277Z,9.04
2018-10-01T21:40:09.507Z,9.09
2018-10-01T21:42:38.429Z,9.06
2018-10-01T21:45:08.071Z,8.96
2018-10-01T21:47:37.026Z,9.03
2018-10-01T21:50:05.974Z,8.81
2018-10-01T21:52:34.937Z,8.82
2018-10-01T21:55:03.936Z,9.00
2018-10-01T21:57:32.912Z,8.96
2018-10-01T22:00:01.868Z,8.78
2018-10-01T22:02:30.822Z,8.74
2018-10-01T22:04:59.883Z,8.88
2018-10-01T22:07:28.966Z,8.74
2018-10-01T22:10:04.434Z,8.88
2018-10-01T22:12:33.531Z,8.78
2018-10-01T22:15:02.466Z,8.81
2018-10-01T22:17:31.444Z,8.64
2018-10-01T22:20:00.374Z,8.87
2018-10-01T22:22:29.297Z,8.82
2018-10-01T22:24:58.218Z,8.78
2018-10-01T22:27:27.820Z,8.89
2018-10-01T22:29:57.473Z,8.62
2018-10-01T22:32:27.447Z,8.77
2018-10-01T22:34:57.324Z,8.78
2018-10-01T22:37:26.857Z,8.86
2018-10-01T22:39:56.110Z,8.87
2018-10-01T22:42:25.070Z,8.78
2018-10-01T22:44:53.978Z,8.77
2018-10-01T22:47:23.676Z,8.80
2018-10-01T22:49:52.609Z,8.88
2018-10-01T22:52:21.649Z,8.83
2018-10-01T22:54:50.627Z,8.86
2018-10-01T22:57:19.555Z,8.88
2018-10-01T22:59:49.167Z,8.87
2018-10-01T23:02:18.091Z,8.89
2018-10-01T23:04:47.114Z,8.93
2018-10-01T23:07:16.084Z,8.57
2018-10-01T23:09:45.241Z,8.78
2018-10-01T23:12:14.168Z,8.62
2018-10-01T23:14:43.252Z,8.71
2018-10-01T23:17:12.130Z,8.63
2018-10-01T23:19:41.055Z,8.73
2018-10-01T23:22:09.958Z,8.75
2018-10-01T23:24:38.899Z,8.79
2018-10-01T23:27:07.770Z,8.68
2018-10-01T23:29:36.708Z,8.67
2018-10-01T23:32:05.720Z,8.56
2018-10-01T23:34:34.623Z,8.73
2018-10-01T23:37:03.501Z,8.70
2018-10-01T23:39:32.491Z,8.74
2018-10-01T23:42:01.362Z,8.81
2018-10-01T23:44:30.268Z,8.66
2018-10-01T23:46:59.181Z,8.78
2018-10-01T23:49:28.108Z,8.62
2018-10-01T23:51:57.011Z,8.75
2018-10-01T23:54:26.149Z,8.65
2018-10-01T23:56:55.087Z,8.68
2018-10-01T23:59:24.003Z,8.68
